sensor_id;sensor_type;location;lat;lon;timestamp;P1;durP1;ratioP1;P2;durP2;ratioP2
46815;SDS011;32787;53.316;8.670;2023-11-19T00:00:28;7.63;;;3.88;;
46815;SDS011;32787;53.316;8.670;2023-11-19T00:02:54;7.47;;;3.97;;
46815;SDS011;32787;53.316;8.670;2023-11-19T00:05:20;8.07;;;4.22;;
46815;SDS011;32787;53.316;8.670;2023-11-19T00:07:46;8.35;;;4.22;;
46815;SDS011;32787;53.316;8.670;2023-11-19T00:10:12;7.97;;;4.15;;
46815;SDS011;32787;53.316;8.670;2023-11-19T00:12:43;8.13;;;4.90;;
46815;SDS011;32787;53.316;8.670;2023-11-19T00:15:10;8.90;;;5.18;;
46815;SDS011;32787;53.316;8.670;2023-11-19T00:17:42;8.20;;;4.80;;
46815;SDS011;32787;53.316;8.670;2023-11-19T00:20:12;9.60;;;5.68;;
46815;SDS011;32787;53.316;8.670;2023-11-19T00:22:39;11.13;;;6.57;;
46815;SDS011;32787;53.316;8.670;2023-11-19T00:25:06;12.05;;;6.70;;
46815;SDS011;32787;53.316;8.670;2023-11-19T00:27:32;14.68;;;6.85;;
46815;SDS011;32787;53.316;8.670;2023-11-19T00:29:58;13.82;;;7.47;;
46815;SDS011;32787;53.316;8.670;2023-11-19T00:32:24;13.65;;;7.45;;
46815;SDS011;32787;53.316;8.670;2023-11-19T00:34:50;13.77;;;7.68;;
46815;SDS011;32787;53.316;8.670;2023-11-19T00:37:16;15.45;;;8.63;;
46815;SDS011;32787;53.316;8.670;2023-11-19T00:39:42;15.65;;;8.82;;
46815;SDS011;32787;53.316;8.670;2023-11-19T00:42:08;16.73;;;9.05;;
46815;SDS011;32787;53.316;8.670;2023-11-19T00:44:35;15.80;;;8.65;;
46815;SDS011;32787;53.316;8.670;2023-11-19T00:47:01;14.98;;;9.07;;
46815;SDS011;32787;53.316;8.670;2023-11-19T00:49:27;18.00;;;9.93;;
46815;SDS011;32787;53.316;8.670;2023-11-19T00:51:52;18.10;;;9.88;;
46815;SDS011;32787;53.316;8.670;2023-11-19T00:54:18;18.25;;;10.38;;
46815;SDS011;32787;53.316;8.670;2023-11-19T00:56:44;18.85;;;10.10;;
46815;SDS011;32787;53.316;8.670;2023-11-19T00:59:10;18.52;;;9.68;;
46815;SDS011;32787;53.316;8.670;2023-11-19T01:01:35;21.38;;;9.88;;
46815;SDS011;32787;53.316;8.670;2023-11-19T01:04:01;18.60;;;10.05;;
46815;SDS011;32787;53.316;8.670;2023-11-19T01:06:27;18.52;;;9.88;;
46815;SDS011;32787;53.316;8.670;2023-11-19T01:08:56;18.45;;;10.80;;
46815;SDS011;32787;53.316;8.670;2023-11-19T01:11:23;18.50;;;9.88;;
46815;SDS011;32787;53.316;8.670;2023-11-19T01:13:50;19.92;;;9.77;;
46815;SDS011;32787;53.316;8.670;2023-11-19T01:16:16;18.13;;;10.38;;
46815;SDS011;32787;53.316;8.670;2023-11-19T01:18:42;20.25;;;9.85;;
46815;SDS011;32787;53.316;8.670;2023-11-19T01:21:08;18.50;;;10.75;;
46815;SDS011;32787;53.316;8.670;2023-11-19T01:23:34;17.83;;;9.88;;
46815;SDS011;32787;53.316;8.670;2023-11-19T01:25:59;16.23;;;10.02;;
46815;SDS011;32787;53.316;8.670;2023-11-19T01:28:25;15.70;;;9.40;;
46815;SDS011;32787;53.316;8.670;2023-11-19T01:30:51;19.95;;;10.40;;
46815;SDS011;32787;53.316;8.670;2023-11-19T01:33:17;18.50;;;9.48;;
46815;SDS011;32787;53.316;8.670;2023-11-19T01:35:42;16.90;;;9.90;;
46815;SDS011;32787;53.316;8.670;2023-11-19T01:38:08;18.27;;;9.70;;
46815;SDS011;32787;53.316;8.670;2023-11-19T01:40:34;17.92;;;10.25;;
46815;SDS011;32787;53.316;8.670;2023-11-19T01:43:01;17.90;;;9.73;;
46815;SDS011;32787;53.316;8.670;2023-11-19T01:45:28;17.83;;;10.10;;
46815;SDS011;32787;53.316;8.670;2023-11-19T01:47:58;20.02;;;11.35;;
46815;SDS011;32787;53.316;8.670;2023-11-19T01:50:25;20.70;;;11.45;;
46815;SDS011;32787;53.316;8.670;2023-11-19T01:52:53;22.08;;;12.00;;
46815;SDS011;32787;53.316;8.670;2023-11-19T01:55:20;22.55;;;11.00;;
46815;SDS011;32787;53.316;8.670;2023-11-19T01:57:46;19.05;;;10.68;;
46815;SDS011;32787;53.316;8.670;2023-11-19T02:00:13;18.92;;;10.25;;
46815;SDS011;32787;53.316;8.670;2023-11-19T02:02:40;17.05;;;10.32;;
46815;SDS011;32787;53.316;8.670;2023-11-19T02:05:06;20.08;;;11.00;;
46815;SDS011;32787;53.316;8.670;2023-11-19T02:07:32;19.65;;;11.38;;
46815;SDS011;32787;53.316;8.670;2023-11-19T02:09:57;20.42;;;11.55;;
46815;SDS011;32787;53.316;8.670;2023-11-19T02:12:25;21.45;;;11.25;;
46815;SDS011;32787;53.316;8.670;2023-11-19T02:14:53;23.17;;;12.45;;
46815;SDS011;32787;53.316;8.670;2023-11-19T02:17:29;20.05;;;11.05;;
46815;SDS011;32787;53.316;8.670;2023-11-19T02:19:59;20.90;;;11.05;;
46815;SDS011;32787;53.316;8.670;2023-11-19T02:22:25;19.48;;;11.23;;
46815;SDS011;32787;53.316;8.670;2023-11-19T02:24:51;19.63;;;11.18;;
46815;SDS011;32787;53.316;8.670;2023-11-19T02:30:13;20.63;;;10.85;;
46815;SDS011;32787;53.316;8.670;2023-11-19T02:32:40;21.77;;;11.68;;
46815;SDS011;32787;53.316;8.670;2023-11-19T02:35:06;23.58;;;11.75;;
46815;SDS011;32787;53.316;8.670;2023-11-19T02:37:36;28.15;;;12.93;;
46815;SDS011;32787;53.316;8.670;2023-11-19T02:40:04;24.65;;;13.25;;
46815;SDS011;32787;53.316;8.670;2023-11-19T02:42:30;25.80;;;13.45;;
46815;SDS011;32787;53.316;8.670;2023-11-19T02:44:56;27.17;;;13.93;;
46815;SDS011;32787;53.316;8.670;2023-11-19T02:47:22;26.08;;;13.70;;
46815;SDS011;32787;53.316;8.670;2023-11-19T02:49:49;25.20;;;13.23;;
46815;SDS011;32787;53.316;8.670;2023-11-19T02:52:15;24.33;;;14.02;;
46815;SDS011;32787;53.316;8.670;2023-11-19T02:54:41;29.63;;;15.00;;
46815;SDS011;32787;53.316;8.670;2023-11-19T02:57:07;35.17;;;15.40;;
46815;SDS011;32787;53.316;8.670;2023-11-19T02:59:38;30.08;;;15.55;;
46815;SDS011;32787;53.316;8.670;2023-11-19T03:02:07;31.27;;;15.50;;
46815;SDS011;32787;53.316;8.670;2023-11-19T03:04:36;33.38;;;15.50;;
46815;SDS011;32787;53.316;8.670;2023-11-19T03:07:05;32.53;;;15.10;;
46815;SDS011;32787;53.316;8.670;2023-11-19T03:09:32;35.00;;;15.68;;
46815;SDS011;32787;53.316;8.670;2023-11-19T03:11:58;38.85;;;14.93;;
46815;SDS011;32787;53.316;8.670;2023-11-19T03:14:24;34.85;;;15.85;;
46815;SDS011;32787;53.316;8.670;2023-11-19T03:16:50;31.13;;;16.75;;
46815;SDS011;32787;53.316;8.670;2023-11-19T03:19:15;31.85;;;16.63;;
46815;SDS011;32787;53.316;8.670;2023-11-19T03:21:41;34.90;;;15.60;;
46815;SDS011;32787;53.316;8.670;2023-11-19T03:24:07;35.50;;;16.48;;
46815;SDS011;32787;53.316;8.670;2023-11-19T03:26:33;35.00;;;15.32;;
46815;SDS011;32787;53.316;8.670;2023-11-19T03:29:00;30.00;;;14.75;;
46815;SDS011;32787;53.316;8.670;2023-11-19T03:31:26;34.88;;;14.57;;
46815;SDS011;32787;53.316;8.670;2023-11-19T03:33:52;34.38;;;15.35;;
46815;SDS011;32787;53.316;8.670;2023-11-19T03:36:17;32.70;;;13.75;;
46815;SDS011;32787;53.316;8.670;2023-11-19T03:38:43;30.48;;;13.55;;
46815;SDS011;32787;53.316;8.670;2023-11-19T03:41:12;29.83;;;13.35;;
46815;SDS011;32787;53.316;8.670;2023-11-19T03:43:38;24.90;;;11.88;;
46815;SDS011;32787;53.316;8.670;2023-11-19T03:46:05;33.58;;;14.45;;
46815;SDS011;32787;53.316;8.670;2023-11-19T03:48:40;32.60;;;13.90;;
46815;SDS011;32787;53.316;8.670;2023-11-19T03:51:06;30.90;;;13.50;;
46815;SDS011;32787;53.316;8.670;2023-11-19T03:53:31;31.73;;;13.30;;
46815;SDS011;32787;53.316;8.670;2023-11-19T03:55:57;28.98;;;13.00;;
46815;SDS011;32787;53.316;8.670;2023-11-19T03:58:23;33.42;;;13.75;;
46815;SDS011;32787;53.316;8.670;2023-11-19T04:00:49;27.50;;;12.82;;
46815;SDS011;32787;53.316;8.670;2023-11-19T04:03:14;30.67;;;12.57;;
46815;SDS011;32787;53.316;8.670;2023-11-19T04:05:40;28.52;;;14.10;;
46815;SDS011;32787;53.316;8.670;2023-11-19T04:08:06;28.55;;;12.80;;
46815;SDS011;32787;53.316;8.670;2023-11-19T04:10:31;25.70;;;12.65;;
46815;SDS011;32787;53.316;8.670;2023-11-19T04:12:57;33.17;;;12.38;;
46815;SDS011;32787;53.316;8.670;2023-11-19T04:15:22;32.92;;;13.55;;
46815;SDS011;32787;53.316;8.670;2023-11-19T04:17:49;31.77;;;12.52;;
46815;SDS011;32787;53.316;8.670;2023-11-19T04:20:14;39.67;;;12.52;;
46815;SDS011;32787;53.316;8.670;2023-11-19T04:22:40;32.63;;;12.65;;
46815;SDS011;32787;53.316;8.670;2023-11-19T04:25:06;29.20;;;13.13;;
46815;SDS011;32787;53.316;8.670;2023-11-19T04:27:32;29.23;;;12.38;;
46815;SDS011;32787;53.316;8.670;2023-11-19T04:29:57;38.17;;;13.18;;
46815;SDS011;32787;53.316;8.670;2023-11-19T04:32:23;34.75;;;13.00;;
46815;SDS011;32787;53.316;8.670;2023-11-19T04:34:50;38.10;;;12.82;;
46815;SDS011;32787;53.316;8.670;2023-11-19T04:37:16;30.52;;;11.82;;
46815;SDS011;32787;53.316;8.670;2023-11-19T04:39:43;36.67;;;13.43;;
46815;SDS011;32787;53.316;8.670;2023-11-19T04:42:10;34.45;;;14.50;;
46815;SDS011;32787;53.316;8.670;2023-11-19T04:44:35;31.50;;;12.75;;
46815;SDS011;32787;53.316;8.670;2023-11-19T04:47:01;33.03;;;12.40;;
46815;SDS011;32787;53.316;8.670;2023-11-19T04:49:27;26.52;;;12.63;;
46815;SDS011;32787;53.316;8.670;2023-11-19T04:51:52;32.50;;;11.60;;
46815;SDS011;32787;53.316;8.670;2023-11-19T04:54:18;39.05;;;12.15;;
46815;SDS011;32787;53.316;8.670;2023-11-19T04:56:47;34.00;;;11.57;;
46815;SDS011;32787;53.316;8.670;2023-11-19T04:59:13;38.22;;;11.70;;
46815;SDS011;32787;53.316;8.670;2023-11-19T05:01:39;31.90;;;10.70;;
46815;SDS011;32787;53.316;8.670;2023-11-19T05:04:07;34.38;;;10.77;;
46815;SDS011;32787;53.316;8.670;2023-11-19T05:06:32;36.63;;;11.50;;
46815;SDS011;32787;53.316;8.670;2023-11-19T05:08:59;36.03;;;10.48;;
46815;SDS011;32787;53.316;8.670;2023-11-19T05:11:35;35.40;;;9.63;;
46815;SDS011;32787;53.316;8.670;2023-11-19T05:14:04;31.05;;;9.98;;
46815;SDS011;32787;53.316;8.670;2023-11-19T05:16:31;35.03;;;9.20;;
46815;SDS011;32787;53.316;8.670;2023-11-19T05:18:56;33.28;;;8.77;;
46815;SDS011;32787;53.316;8.670;2023-11-19T05:21:22;43.70;;;9.02;;
46815;SDS011;32787;53.316;8.670;2023-11-19T05:23:48;29.92;;;8.82;;
46815;SDS011;32787;53.316;8.670;2023-11-19T05:26:18;26.90;;;8.82;;
46815;SDS011;32787;53.316;8.670;2023-11-19T05:28:44;36.08;;;9.32;;
46815;SDS011;32787;53.316;8.670;2023-11-19T05:31:10;28.40;;;8.52;;
46815;SDS011;32787;53.316;8.670;2023-11-19T05:33:36;29.73;;;8.52;;
46815;SDS011;32787;53.316;8.670;2023-11-19T05:36:02;30.35;;;7.28;;
46815;SDS011;32787;53.316;8.670;2023-11-19T05:38:29;38.38;;;8.98;;
46815;SDS011;32787;53.316;8.670;2023-11-19T05:40:54;32.35;;;7.60;;
46815;SDS011;32787;53.316;8.670;2023-11-19T05:43:20;36.03;;;8.63;;
46815;SDS011;32787;53.316;8.670;2023-11-19T05:45:46;27.88;;;7.20;;
46815;SDS011;32787;53.316;8.670;2023-11-19T05:48:12;32.70;;;8.63;;
46815;SDS011;32787;53.316;8.670;2023-11-19T05:50:38;31.38;;;8.10;;
46815;SDS011;32787;53.316;8.670;2023-11-19T05:53:04;33.60;;;7.63;;
46815;SDS011;32787;53.316;8.670;2023-11-19T05:55:33;26.75;;;7.75;;
46815;SDS011;32787;53.316;8.670;2023-11-19T05:57:59;28.08;;;7.50;;
46815;SDS011;32787;53.316;8.670;2023-11-19T06:00:25;32.15;;;7.22;;
46815;SDS011;32787;53.316;8.670;2023-11-19T06:02:51;28.48;;;6.65;;
46815;SDS011;32787;53.316;8.670;2023-11-19T06:05:17;28.08;;;6.18;;
46815;SDS011;32787;53.316;8.670;2023-11-19T06:07:43;29.73;;;6.80;;
46815;SDS011;32787;53.316;8.670;2023-11-19T06:10:09;27.90;;;5.53;;
46815;SDS011;32787;53.316;8.670;2023-11-19T06:12:36;33.35;;;6.32;;
46815;SDS011;32787;53.316;8.670;2023-11-19T06:15:04;26.60;;;5.35;;
46815;SDS011;32787;53.316;8.670;2023-11-19T06:17:31;32.40;;;5.25;;
46815;SDS011;32787;53.316;8.670;2023-11-19T06:19:56;40.35;;;6.30;;
46815;SDS011;32787;53.316;8.670;2023-11-19T06:22:22;31.35;;;4.88;;
46815;SDS011;32787;53.316;8.670;2023-11-19T06:24:47;29.67;;;5.03;;
46815;SDS011;32787;53.316;8.670;2023-11-19T06:27:13;34.00;;;5.55;;
46815;SDS011;32787;53.316;8.670;2023-11-19T06:29:39;31.60;;;5.45;;
46815;SDS011;32787;53.316;8.670;2023-11-19T06:32:06;29.98;;;5.85;;
46815;SDS011;32787;53.316;8.670;2023-11-19T06:34:33;37.90;;;6.63;;
46815;SDS011;32787;53.316;8.670;2023-11-19T06:36:59;37.38;;;5.75;;
46815;SDS011;32787;53.316;8.670;2023-11-19T06:39:24;39.60;;;5.13;;
46815;SDS011;32787;53.316;8.670;2023-11-19T06:41:50;29.45;;;4.97;;
46815;SDS011;32787;53.316;8.670;2023-11-19T06:44:17;36.63;;;5.38;;
46815;SDS011;32787;53.316;8.670;2023-11-19T06:46:42;36.40;;;5.70;;
46815;SDS011;32787;53.316;8.670;2023-11-19T06:49:08;30.02;;;4.65;;
46815;SDS011;32787;53.316;8.670;2023-11-19T06:51:34;24.90;;;5.03;;
46815;SDS011;32787;53.316;8.670;2023-11-19T06:53:59;28.67;;;4.72;;
46815;SDS011;32787;53.316;8.670;2023-11-19T06:56:26;32.15;;;4.80;;
46815;SDS011;32787;53.316;8.670;2023-11-19T06:58:51;25.77;;;5.13;;
46815;SDS011;32787;53.316;8.670;2023-11-19T07:01:18;44.17;;;6.32;;
46815;SDS011;32787;53.316;8.670;2023-11-19T07:03:44;36.88;;;5.60;;
46815;SDS011;32787;53.316;8.670;2023-11-19T07:06:11;49.92;;;6.18;;
46815;SDS011;32787;53.316;8.670;2023-11-19T07:08:38;29.35;;;4.45;;
46815;SDS011;32787;53.316;8.670;2023-11-19T07:11:04;30.50;;;4.50;;
46815;SDS011;32787;53.316;8.670;2023-11-19T07:13:29;32.95;;;5.55;;
46815;SDS011;32787;53.316;8.670;2023-11-19T07:15:58;32.88;;;6.32;;
46815;SDS011;32787;53.316;8.670;2023-11-19T07:18:24;36.83;;;5.40;;
46815;SDS011;32787;53.316;8.670;2023-11-19T07:20:50;34.90;;;5.10;;
46815;SDS011;32787;53.316;8.670;2023-11-19T07:23:16;35.60;;;5.95;;
46815;SDS011;32787;53.316;8.670;2023-11-19T07:25:44;45.95;;;6.22;;
46815;SDS011;32787;53.316;8.670;2023-11-19T07:28:12;29.80;;;5.38;;
46815;SDS011;32787;53.316;8.670;2023-11-19T07:30:38;41.70;;;6.47;;
46815;SDS011;32787;53.316;8.670;2023-11-19T07:33:04;35.63;;;5.38;;
46815;SDS011;32787;53.316;8.670;2023-11-19T07:35:30;37.65;;;6.22;;
46815;SDS011;32787;53.316;8.670;2023-11-19T07:37:56;35.53;;;5.72;;
46815;SDS011;32787;53.316;8.670;2023-11-19T07:40:22;36.15;;;5.57;;
46815;SDS011;32787;53.316;8.670;2023-11-19T07:42:51;37.35;;;4.90;;
46815;SDS011;32787;53.316;8.670;2023-11-19T07:45:17;32.03;;;4.82;;
46815;SDS011;32787;53.316;8.670;2023-11-19T07:47:43;36.13;;;5.10;;
46815;SDS011;32787;53.316;8.670;2023-11-19T07:50:10;29.05;;;4.85;;
46815;SDS011;32787;53.316;8.670;2023-11-19T07:52:36;28.30;;;4.65;;
46815;SDS011;32787;53.316;8.670;2023-11-19T07:55:02;37.20;;;4.97;;
46815;SDS011;32787;53.316;8.670;2023-11-19T07:57:28;35.20;;;5.05;;
46815;SDS011;32787;53.316;8.670;2023-11-19T07:59:56;36.10;;;6.13;;
46815;SDS011;32787;53.316;8.670;2023-11-19T08:02:22;29.52;;;4.70;;
46815;SDS011;32787;53.316;8.670;2023-11-19T08:04:48;29.55;;;5.68;;
46815;SDS011;32787;53.316;8.670;2023-11-19T08:07:17;33.17;;;5.03;;
46815;SDS011;32787;53.316;8.670;2023-11-19T08:09:44;42.35;;;5.57;;
46815;SDS011;32787;53.316;8.670;2023-11-19T08:12:10;31.90;;;6.20;;
46815;SDS011;32787;53.316;8.670;2023-11-19T08:14:36;38.42;;;5.78;;
46815;SDS011;32787;53.316;8.670;2023-11-19T08:17:02;34.33;;;5.07;;
46815;SDS011;32787;53.316;8.670;2023-11-19T08:19:28;31.27;;;5.88;;
46815;SDS011;32787;53.316;8.670;2023-11-19T08:21:53;39.95;;;5.38;;
46815;SDS011;32787;53.316;8.670;2023-11-19T08:24:19;38.50;;;5.03;;
46815;SDS011;32787;53.316;8.670;2023-11-19T08:26:44;30.02;;;5.55;;
46815;SDS011;32787;53.316;8.670;2023-11-19T08:29:10;40.30;;;5.10;;
46815;SDS011;32787;53.316;8.670;2023-11-19T08:31:36;34.10;;;4.93;;
46815;SDS011;32787;53.316;8.670;2023-11-19T08:34:01;32.88;;;5.90;;
46815;SDS011;32787;53.316;8.670;2023-11-19T08:36:27;29.05;;;4.63;;
46815;SDS011;32787;53.316;8.670;2023-11-19T08:38:53;42.17;;;6.20;;
46815;SDS011;32787;53.316;8.670;2023-11-19T08:41:19;36.00;;;5.88;;
46815;SDS011;32787;53.316;8.670;2023-11-19T08:43:46;35.28;;;5.43;;
46815;SDS011;32787;53.316;8.670;2023-11-19T08:46:12;35.15;;;5.75;;
46815;SDS011;32787;53.316;8.670;2023-11-19T08:48:38;33.78;;;5.57;;
46815;SDS011;32787;53.316;8.670;2023-11-19T08:51:04;36.58;;;5.68;;
46815;SDS011;32787;53.316;8.670;2023-11-19T08:53:30;39.55;;;5.07;;
46815;SDS011;32787;53.316;8.670;2023-11-19T08:55:56;30.50;;;5.18;;
46815;SDS011;32787;53.316;8.670;2023-11-19T08:58:21;30.83;;;5.28;;
46815;SDS011;32787;53.316;8.670;2023-11-19T09:00:47;32.30;;;5.13;;
46815;SDS011;32787;53.316;8.670;2023-11-19T09:03:12;37.60;;;5.65;;
46815;SDS011;32787;53.316;8.670;2023-11-19T09:05:38;30.00;;;4.97;;
46815;SDS011;32787;53.316;8.670;2023-11-19T09:08:04;27.83;;;5.35;;
46815;SDS011;32787;53.316;8.670;2023-11-19T09:10:29;37.83;;;6.63;;
46815;SDS011;32787;53.316;8.670;2023-11-19T09:12:55;38.97;;;6.00;;
46815;SDS011;32787;53.316;8.670;2023-11-19T09:15:21;31.92;;;5.55;;
46815;SDS011;32787;53.316;8.670;2023-11-19T09:17:46;32.78;;;5.32;;
46815;SDS011;32787;53.316;8.670;2023-11-19T09:20:12;42.05;;;5.47;;
46815;SDS011;32787;53.316;8.670;2023-11-19T09:22:40;32.30;;;5.63;;
46815;SDS011;32787;53.316;8.670;2023-11-19T09:25:06;30.10;;;4.47;;
46815;SDS011;32787;53.316;8.670;2023-11-19T09:27:32;32.13;;;5.57;;
46815;SDS011;32787;53.316;8.670;2023-11-19T09:29:58;32.47;;;5.63;;
46815;SDS011;32787;53.316;8.670;2023-11-19T09:32:24;32.03;;;5.20;;
46815;SDS011;32787;53.316;8.670;2023-11-19T09:34:50;34.10;;;6.10;;
46815;SDS011;32787;53.316;8.670;2023-11-19T09:37:16;32.65;;;5.78;;
46815;SDS011;32787;53.316;8.670;2023-11-19T09:39:42;34.45;;;5.32;;
46815;SDS011;32787;53.316;8.670;2023-11-19T09:42:10;33.40;;;6.00;;
46815;SDS011;32787;53.316;8.670;2023-11-19T09:44:37;40.53;;;5.00;;
46815;SDS011;32787;53.316;8.670;2023-11-19T09:47:05;27.60;;;5.63;;
46815;SDS011;32787;53.316;8.670;2023-11-19T09:49:32;30.45;;;4.60;;
46815;SDS011;32787;53.316;8.670;2023-11-19T09:51:58;40.95;;;6.22;;
46815;SDS011;32787;53.316;8.670;2023-11-19T09:54:24;50.42;;;6.35;;
46815;SDS011;32787;53.316;8.670;2023-11-19T09:56:49;36.17;;;4.93;;
46815;SDS011;32787;53.316;8.670;2023-11-19T09:59:15;41.45;;;5.70;;
46815;SDS011;32787;53.316;8.670;2023-11-19T10:01:42;33.30;;;5.07;;
46815;SDS011;32787;53.316;8.670;2023-11-19T10:04:09;37.85;;;4.97;;
46815;SDS011;32787;53.316;8.670;2023-11-19T10:06:37;37.17;;;5.07;;
46815;SDS011;32787;53.316;8.670;2023-11-19T10:09:03;30.27;;;5.25;;
46815;SDS011;32787;53.316;8.670;2023-11-19T10:11:30;36.13;;;5.15;;
46815;SDS011;32787;53.316;8.670;2023-11-19T10:13:56;39.22;;;6.45;;
46815;SDS011;32787;53.316;8.670;2023-11-19T10:16:27;36.03;;;5.55;;
46815;SDS011;32787;53.316;8.670;2023-11-19T10:18:56;45.45;;;7.82;;
46815;SDS011;32787;53.316;8.670;2023-11-19T10:21:22;36.13;;;5.78;;
46815;SDS011;32787;53.316;8.670;2023-11-19T10:23:50;36.10;;;5.97;;
46815;SDS011;32787;53.316;8.670;2023-11-19T10:26:17;42.83;;;6.07;;
46815;SDS011;32787;53.316;8.670;2023-11-19T10:28:44;32.42;;;5.63;;
46815;SDS011;32787;53.316;8.670;2023-11-19T10:31:15;37.65;;;6.28;;
46815;SDS011;32787;53.316;8.670;2023-11-19T10:33:42;28.27;;;5.30;;
46815;SDS011;32787;53.316;8.670;2023-11-19T10:36:10;36.78;;;5.93;;
46815;SDS011;32787;53.316;8.670;2023-11-19T10:38:37;30.38;;;5.30;;
46815;SDS011;32787;53.316;8.670;2023-11-19T10:41:03;39.72;;;5.43;;
46815;SDS011;32787;53.316;8.670;2023-11-19T10:43:30;35.28;;;5.43;;
46815;SDS011;32787;53.316;8.670;2023-11-19T10:46:12;35.05;;;6.18;;
46815;SDS011;32787;53.316;8.670;2023-11-19T10:48:39;37.67;;;5.35;;
46815;SDS011;32787;53.316;8.670;2023-11-19T10:51:06;31.52;;;5.63;;
46815;SDS011;32787;53.316;8.670;2023-11-19T10:53:36;36.42;;;5.55;;
46815;SDS011;32787;53.316;8.670;2023-11-19T10:56:06;26.95;;;4.95;;
46815;SDS011;32787;53.316;8.670;2023-11-19T10:58:36;28.67;;;5.55;;
46815;SDS011;32787;53.316;8.670;2023-11-19T11:01:07;33.10;;;5.97;;
46815;SDS011;32787;53.316;8.670;2023-11-19T11:03:41;37.83;;;6.38;;
46815;SDS011;32787;53.316;8.670;2023-11-19T11:06:10;27.85;;;5.10;;
46815;SDS011;32787;53.316;8.670;2023-11-19T11:08:38;35.90;;;6.22;;
46815;SDS011;32787;53.316;8.670;2023-11-19T11:11:05;39.30;;;6.38;;
46815;SDS011;32787;53.316;8.670;2023-11-19T11:13:33;24.65;;;5.10;;
46815;SDS011;32787;53.316;8.670;2023-11-19T11:16:02;37.13;;;6.55;;
46815;SDS011;32787;53.316;8.670;2023-11-19T11:18:31;33.25;;;5.20;;
46815;SDS011;32787;53.316;8.670;2023-11-19T11:21:02;30.35;;;6.78;;
46815;SDS011;32787;53.316;8.670;2023-11-19T11:26:45;38.75;;;6.97;;
46815;SDS011;32787;53.316;8.670;2023-11-19T11:29:34;37.05;;;6.32;;
46815;SDS011;32787;53.316;8.670;2023-11-19T11:32:27;32.22;;;5.57;;
46815;SDS011;32787;53.316;8.670;2023-11-19T11:38:08;33.53;;;6.22;;
46815;SDS011;32787;53.316;8.670;2023-11-19T11:40:34;35.90;;;5.55;;
46815;SDS011;32787;53.316;8.670;2023-11-19T11:43:01;33.28;;;4.78;;
46815;SDS011;32787;53.316;8.670;2023-11-19T11:45:36;33.65;;;6.03;;
46815;SDS011;32787;53.316;8.670;2023-11-19T11:48:11;38.35;;;5.55;;
46815;SDS011;32787;53.316;8.670;2023-11-19T11:50:52;34.05;;;5.22;;
46815;SDS011;32787;53.316;8.670;2023-11-19T11:58:15;31.25;;;5.85;;
46815;SDS011;32787;53.316;8.670;2023-11-19T12:00:47;30.77;;;6.43;;
46815;SDS011;32787;53.316;8.670;2023-11-19T12:03:13;37.55;;;6.28;;
46815;SDS011;32787;53.316;8.670;2023-11-19T12:05:46;28.05;;;5.28;;
46815;SDS011;32787;53.316;8.670;2023-11-19T12:08:12;37.63;;;5.65;;
46815;SDS011;32787;53.316;8.670;2023-11-19T12:13:14;30.70;;;5.38;;
46815;SDS011;32787;53.316;8.670;2023-11-19T12:18:38;33.05;;;5.88;;
46815;SDS011;32787;53.316;8.670;2023-11-19T12:21:04;37.50;;;6.30;;
46815;SDS011;32787;53.316;8.670;2023-11-19T12:23:30;37.92;;;6.53;;
46815;SDS011;32787;53.316;8.670;2023-11-19T12:25:57;32.78;;;5.72;;
46815;SDS011;32787;53.316;8.670;2023-11-19T12:28:23;32.60;;;6.22;;
46815;SDS011;32787;53.316;8.670;2023-11-19T12:30:51;38.25;;;6.47;;
46815;SDS011;32787;53.316;8.670;2023-11-19T12:33:18;41.13;;;6.18;;
46815;SDS011;32787;53.316;8.670;2023-11-19T12:35:45;28.15;;;5.50;;
46815;SDS011;32787;53.316;8.670;2023-11-19T12:38:21;33.58;;;5.13;;
46815;SDS011;32787;53.316;8.670;2023-11-19T12:41:04;40.95;;;6.22;;
46815;SDS011;32787;53.316;8.670;2023-11-19T12:43:36;39.22;;;5.65;;
46815;SDS011;32787;53.316;8.670;2023-11-19T12:46:24;42.53;;;6.55;;
46815;SDS011;32787;53.316;8.670;2023-11-19T12:48:49;34.67;;;5.85;;
46815;SDS011;32787;53.316;8.670;2023-11-19T12:51:15;37.10;;;6.10;;
46815;SDS011;32787;53.316;8.670;2023-11-19T12:53:53;40.35;;;6.38;;
46815;SDS011;32787;53.316;8.670;2023-11-19T12:56:20;36.28;;;5.63;;
46815;SDS011;32787;53.316;8.670;2023-11-19T12:58:46;36.47;;;5.30;;
46815;SDS011;32787;53.316;8.670;2023-11-19T13:01:15;37.53;;;5.85;;
46815;SDS011;32787;53.316;8.670;2023-11-19T13:03:42;32.70;;;5.75;;
46815;SDS011;32787;53.316;8.670;2023-11-19T13:06:09;36.92;;;5.32;;
46815;SDS011;32787;53.316;8.670;2023-11-19T13:08:46;32.45;;;4.63;;
46815;SDS011;32787;53.316;8.670;2023-11-19T13:11:33;34.05;;;5.68;;
46815;SDS011;32787;53.316;8.670;2023-11-19T13:14:04;33.10;;;5.65;;
46815;SDS011;32787;53.316;8.670;2023-11-19T13:16:30;28.23;;;4.95;;
46815;SDS011;32787;53.316;8.670;2023-11-19T13:18:56;22.17;;;4.00;;
46815;SDS011;32787;53.316;8.670;2023-11-19T13:21:23;32.70;;;4.93;;
46815;SDS011;32787;53.316;8.670;2023-11-19T13:23:49;28.05;;;4.75;;
46815;SDS011;32787;53.316;8.670;2023-11-19T13:26:15;34.83;;;5.10;;
46815;SDS011;32787;53.316;8.670;2023-11-19T13:28:40;26.35;;;4.93;;
46815;SDS011;32787;53.316;8.670;2023-11-19T13:31:06;28.27;;;5.18;;
46815;SDS011;32787;53.316;8.670;2023-11-19T13:33:32;26.08;;;4.35;;
46815;SDS011;32787;53.316;8.670;2023-11-19T13:35:59;34.45;;;7.32;;
46815;SDS011;32787;53.316;8.670;2023-11-19T13:38:30;29.90;;;6.03;;
46815;SDS011;32787;53.316;8.670;2023-11-19T13:40:56;30.92;;;4.80;;
46815;SDS011;32787;53.316;8.670;2023-11-19T13:43:22;29.33;;;4.20;;
46815;SDS011;32787;53.316;8.670;2023-11-19T13:45:47;30.80;;;4.10;;
46815;SDS011;32787;53.316;8.670;2023-11-19T13:48:13;22.42;;;4.18;;
46815;SDS011;32787;53.316;8.670;2023-11-19T13:50:38;35.42;;;4.53;;
46815;SDS011;32787;53.316;8.670;2023-11-19T13:53:04;19.23;;;4.72;;
46815;SDS011;32787;53.316;8.670;2023-11-19T13:55:30;34.42;;;5.43;;
46815;SDS011;32787;53.316;8.670;2023-11-19T13:57:55;26.35;;;3.75;;
46815;SDS011;32787;53.316;8.670;2023-11-19T14:00:21;26.02;;;3.67;;
46815;SDS011;32787;53.316;8.670;2023-11-19T14:02:49;24.85;;;5.32;;
46815;SDS011;32787;53.316;8.670;2023-11-19T14:05:15;20.80;;;4.07;;
46815;SDS011;32787;53.316;8.670;2023-11-19T14:07:42;25.00;;;4.40;;
46815;SDS011;32787;53.316;8.670;2023-11-19T14:10:08;28.60;;;3.40;;
46815;SDS011;32787;53.316;8.670;2023-11-19T14:12:36;24.17;;;3.00;;
46815;SDS011;32787;53.316;8.670;2023-11-19T14:15:08;23.13;;;4.25;;
46815;SDS011;32787;53.316;8.670;2023-11-19T14:17:35;21.65;;;4.32;;
46815;SDS011;32787;53.316;8.670;2023-11-19T14:20:01;22.45;;;3.78;;
46815;SDS011;32787;53.316;8.670;2023-11-19T14:22:41;21.17;;;3.90;;
46815;SDS011;32787;53.316;8.670;2023-11-19T14:25:08;26.25;;;4.07;;
46815;SDS011;32787;53.316;8.670;2023-11-19T14:27:38;26.98;;;3.58;;
46815;SDS011;32787;53.316;8.670;2023-11-19T14:30:06;21.48;;;3.05;;
46815;SDS011;32787;53.316;8.670;2023-11-19T14:32:35;24.08;;;3.47;;
46815;SDS011;32787;53.316;8.670;2023-11-19T14:35:00;19.88;;;3.65;;
46815;SDS011;32787;53.316;8.670;2023-11-19T14:37:26;20.40;;;4.00;;
46815;SDS011;32787;53.316;8.670;2023-11-19T14:39:52;23.48;;;3.85;;
46815;SDS011;32787;53.316;8.670;2023-11-19T14:42:17;29.10;;;4.03;;
46815;SDS011;32787;53.316;8.670;2023-11-19T14:44:43;28.58;;;4.47;;
46815;SDS011;32787;53.316;8.670;2023-11-19T14:47:09;26.63;;;3.65;;
46815;SDS011;32787;53.316;8.670;2023-11-19T14:49:35;30.30;;;6.00;;